WZZ3271 EPKK-EPWA
Flight info
| Callsign | WZZ3271 |
|---|---|
| Flight time | 1h 13m |
| Altitude | 21000 |
| Route | POBOK M985 KOTEK M866 LOGDA |
| Aircraft | A20N/M-SDE2E3FGHIRWXY/LB1 |
Departure
| Time | 2026-05-06 16:32 |
|---|---|
| Airport | Kraków John Paul II International Airport (EPKK) |
Arrival
| Time | 2026-05-06 17:45 |
|---|---|
| Airport | Warsaw Chopin Airport (EPWA) |
| Time | Latitude | Longitude | Altitude | Speed | Heading |
|---|---|---|---|---|---|
| 2026-05-06 16:05 | 50.07303 | 19.80027 | 793 ft | 0 kts | 156° |
| 2026-05-06 16:17 | 50.07304 | 19.80026 | 793 ft | 0 kts | 156° |
| 2026-05-06 16:18 | 50.07306 | 19.80025 | 793 ft | 0 kts | 156° |
| 2026-05-06 16:18 | 50.07307 | 19.80024 | 793 ft | 3 kts | 156° |
| 2026-05-06 16:18 | 50.07322 | 19.80009 | 793 ft | 3 kts | 123° |
| 2026-05-06 16:19 | 50.07333 | 19.79986 | 793 ft | 3 kts | 152° |
| 2026-05-06 16:19 | 50.07350 | 19.79975 | 793 ft | 3 kts | 160° |
| 2026-05-06 16:19 | 50.07367 | 19.79966 | 793 ft | 3 kts | 137° |
| 2026-05-06 16:19 | 50.07373 | 19.79954 | 793 ft | 0 kts | 94° |
| 2026-05-06 16:23 | 50.07388 | 19.80035 | 793 ft | 18 kts | 70° |
| 2026-05-06 16:23 | 50.07424 | 19.80265 | 792 ft | 22 kts | 79° |
| 2026-05-06 16:24 | 50.07503 | 19.80398 | 792 ft | 16 kts | 18° |
| 2026-05-06 16:24 | 50.07603 | 19.80410 | 792 ft | 13 kts | 348° |
| 2026-05-06 16:24 | 50.07690 | 19.80381 | 792 ft | 12 kts | 347° |
| 2026-05-06 16:24 | 50.07772 | 19.80353 | 792 ft | 13 kts | 348° |
| 2026-05-06 16:25 | 50.07819 | 19.80339 | 792 ft | 0 kts | 348° |
| 2026-05-06 16:30 | 50.07820 | 19.80338 | 792 ft | 3 kts | 348° |
| 2026-05-06 16:30 | 50.07868 | 19.80323 | 792 ft | 16 kts | 349° |
| 2026-05-06 16:30 | 50.08000 | 19.80242 | 791 ft | 14 kts | 296° |
| 2026-05-06 16:30 | 50.07996 | 19.80111 | 793 ft | 11 kts | 257° |
| 2026-05-06 16:31 | 50.07981 | 19.79998 | 793 ft | 10 kts | 258° |
| 2026-05-06 16:31 | 50.07955 | 19.79808 | 793 ft | 41 kts | 257° |
| 2026-05-06 16:31 | 50.07847 | 19.79041 | 796 ft | 103 kts | 257° |
| 2026-05-06 16:31 | 50.07653 | 19.77671 | 816 ft | 153 kts | 253° |
| 2026-05-06 16:32 | 50.07555 | 19.76098 | 1403 ft | 142 kts | 263° |
| 2026-05-06 16:32 | 50.07493 | 19.74601 | 1930 ft | 142 kts | 261° |
| 2026-05-06 16:32 | 50.07343 | 19.73117 | 2325 ft | 137 kts | 256° |
| 2026-05-06 16:32 | 50.07174 | 19.71836 | 2299 ft | 114 kts | 253° |
| 2026-05-06 16:33 | 50.06956 | 19.70501 | 2298 ft | 144 kts | 253° |
| 2026-05-06 16:33 | 50.06632 | 19.68906 | 2891 ft | 155 kts | 248° |
| 2026-05-06 16:33 | 50.06206 | 19.67381 | 3671 ft | 158 kts | 240° |
| 2026-05-06 16:34 | 50.04920 | 19.64032 | 4606 ft | 202 kts | 223° |
| 2026-05-06 16:34 | 50.03643 | 19.62967 | 5162 ft | 214 kts | 192° |
| 2026-05-06 16:34 | 50.02256 | 19.63052 | 5574 ft | 195 kts | 170° |
| 2026-05-06 16:34 | 50.00902 | 19.63665 | 6010 ft | 212 kts | 166° |
| 2026-05-06 16:35 | 49.99466 | 19.64405 | 6673 ft | 223 kts | 165° |
| 2026-05-06 16:35 | 49.97979 | 19.65178 | 7446 ft | 228 kts | 165° |
| 2026-05-06 16:35 | 49.96484 | 19.65956 | 8310 ft | 229 kts | 165° |
| 2026-05-06 16:35 | 49.94972 | 19.66737 | 9152 ft | 231 kts | 165° |
| 2026-05-06 16:36 | 49.93434 | 19.67519 | 9945 ft | 235 kts | 165° |
| 2026-05-06 16:36 | 49.91864 | 19.68310 | 10618 ft | 240 kts | 165° |
| 2026-05-06 16:36 | 49.90268 | 19.69119 | 11351 ft | 244 kts | 165° |
| 2026-05-06 16:36 | 49.88644 | 19.69928 | 12081 ft | 248 kts | 169° |
| 2026-05-06 16:37 | 49.86952 | 19.69972 | 12825 ft | 243 kts | 196° |
| 2026-05-06 16:37 | 49.85364 | 19.69106 | 13603 ft | 243 kts | 208° |
| 2026-05-06 16:37 | 49.83868 | 19.67908 | 14263 ft | 246 kts | 211° |
| 2026-05-06 16:37 | 49.82382 | 19.66638 | 14959 ft | 248 kts | 211° |
| 2026-05-06 16:38 | 49.80868 | 19.65335 | 15686 ft | 249 kts | 211° |
| 2026-05-06 16:38 | 49.79384 | 19.63975 | 16426 ft | 249 kts | 213° |
| 2026-05-06 16:38 | 49.77915 | 19.62580 | 17168 ft | 249 kts | 213° |
| 2026-05-06 16:38 | 49.76438 | 19.61158 | 17862 ft | 251 kts | 213° |
| 2026-05-06 16:39 | 49.74961 | 19.59727 | 18514 ft | 252 kts | 213° |
| 2026-05-06 16:39 | 49.73464 | 19.58273 | 19102 ft | 256 kts | 213° |
| 2026-05-06 16:39 | 49.71959 | 19.56809 | 19675 ft | 259 kts | 213° |
| 2026-05-06 16:39 | 49.70419 | 19.55306 | 20267 ft | 264 kts | 213° |
| 2026-05-06 16:40 | 49.68868 | 19.53805 | 20790 ft | 267 kts | 213° |
| 2026-05-06 16:40 | 49.67289 | 19.52269 | 21019 ft | 268 kts | 213° |
| 2026-05-06 16:40 | 49.65656 | 19.50687 | 21057 ft | 290 kts | 213° |
| 2026-05-06 16:40 | 49.63964 | 19.48780 | 21052 ft | 313 kts | 226° |
| 2026-05-06 16:41 | 49.62749 | 19.45859 | 21054 ft | 338 kts | 247° |
| 2026-05-06 16:41 | 49.62309 | 19.42175 | 21055 ft | 365 kts | 267° |
| 2026-05-06 16:41 | 49.62507 | 19.39536 | 21039 ft | 384 kts | 280° |
| 2026-05-06 16:41 | 49.63565 | 19.35666 | 21038 ft | 401 kts | 298° |
| 2026-05-06 16:42 | 49.66184 | 19.31576 | 21035 ft | 415 kts | 323° |
| 2026-05-06 16:42 | 49.67923 | 19.30201 | 21033 ft | 421 kts | 335° |
| 2026-05-06 16:42 | 49.70804 | 19.29240 | 21039 ft | 429 kts | 354° |
| 2026-05-06 16:42 | 49.73754 | 19.29647 | 21036 ft | 436 kts | 11° |
| 2026-05-06 16:43 | 49.76633 | 19.30950 | 21017 ft | 429 kts | 19° |
| 2026-05-06 16:43 | 49.79164 | 19.33155 | 21019 ft | 413 kts | 38° |
| 2026-05-06 16:43 | 49.81301 | 19.35959 | 20987 ft | 396 kts | 40° |
| 2026-05-06 16:43 | 49.83366 | 19.38673 | 20859 ft | 385 kts | 43° |
| 2026-05-06 16:44 | 49.85140 | 19.41658 | 20828 ft | 370 kts | 54° |
| 2026-05-06 16:44 | 49.86607 | 19.44828 | 20821 ft | 355 kts | 57° |
| 2026-05-06 16:44 | 49.87967 | 19.47913 | 20820 ft | 340 kts | 57° |
| 2026-05-06 16:44 | 49.89268 | 19.50859 | 20818 ft | 325 kts | 57° |
| 2026-05-06 16:45 | 49.90922 | 19.54581 | 20823 ft | 306 kts | 57° |
| 2026-05-06 16:45 | 49.91714 | 19.56350 | 20820 ft | 299 kts | 57° |
| 2026-05-06 16:45 | 49.92942 | 19.59090 | 20858 ft | 321 kts | 57° |
| 2026-05-06 16:45 | 49.94288 | 19.62015 | 20842 ft | 347 kts | 51° |
| 2026-05-06 16:46 | 49.96139 | 19.64621 | 20846 ft | 371 kts | 35° |
| 2026-05-06 16:46 | 49.98352 | 19.66926 | 20840 ft | 395 kts | 32° |
| 2026-05-06 16:46 | 50.00752 | 19.69240 | 20818 ft | 417 kts | 31° |
| 2026-05-06 16:46 | 50.03277 | 19.71647 | 20808 ft | 438 kts | 31° |
| 2026-05-06 16:47 | 50.05910 | 19.74255 | 20804 ft | 457 kts | 33° |
| 2026-05-06 16:47 | 50.08592 | 19.77054 | 20812 ft | 475 kts | 33° |
| 2026-05-06 16:47 | 50.11407 | 19.79870 | 20810 ft | 491 kts | 32° |
| 2026-05-06 16:47 | 50.14328 | 19.82765 | 20799 ft | 495 kts | 32° |
| 2026-05-06 16:48 | 50.17206 | 19.85495 | 20794 ft | 472 kts | 27° |
| 2026-05-06 16:48 | 50.20141 | 19.87515 | 20801 ft | 451 kts | 19° |
| 2026-05-06 16:48 | 50.22992 | 19.89233 | 20804 ft | 438 kts | 22° |
| 2026-05-06 16:48 | 50.25710 | 19.91329 | 20813 ft | 438 kts | 27° |
| 2026-05-06 16:49 | 50.28368 | 19.93591 | 20817 ft | 438 kts | 28° |
| 2026-05-06 16:49 | 50.31033 | 19.95881 | 20819 ft | 439 kts | 28° |
| 2026-05-06 16:49 | 50.33696 | 19.98174 | 20822 ft | 439 kts | 28° |
| 2026-05-06 16:49 | 50.36348 | 20.00466 | 20828 ft | 439 kts | 28° |
| 2026-05-06 16:50 | 50.39023 | 20.02778 | 20829 ft | 439 kts | 28° |
| 2026-05-06 16:50 | 50.41649 | 20.05051 | 20830 ft | 438 kts | 28° |
| 2026-05-06 16:50 | 50.44325 | 20.07371 | 20829 ft | 438 kts | 28° |
| 2026-05-06 16:50 | 50.46953 | 20.09652 | 20830 ft | 438 kts | 28° |
| 2026-05-06 16:51 | 50.49642 | 20.11932 | 20828 ft | 438 kts | 26° |
| 2026-05-06 16:51 | 50.52373 | 20.14072 | 20832 ft | 438 kts | 25° |
| 2026-05-06 16:51 | 50.55092 | 20.16190 | 20827 ft | 438 kts | 25° |
| 2026-05-06 16:51 | 50.57799 | 20.18305 | 20825 ft | 438 kts | 25° |
| 2026-05-06 16:52 | 50.60527 | 20.20438 | 20827 ft | 438 kts | 25° |
| 2026-05-06 16:52 | 50.63253 | 20.22573 | 20823 ft | 438 kts | 25° |
| 2026-05-06 16:52 | 50.65956 | 20.24693 | 20822 ft | 438 kts | 25° |
| 2026-05-06 16:52 | 50.68687 | 20.26836 | 20823 ft | 438 kts | 25° |
| 2026-05-06 16:53 | 50.71411 | 20.28976 | 20821 ft | 438 kts | 25° |
| 2026-05-06 16:53 | 50.74136 | 20.31121 | 20829 ft | 438 kts | 25° |
| 2026-05-06 16:53 | 50.76852 | 20.33313 | 20821 ft | 439 kts | 25° |
| 2026-05-06 16:53 | 50.79560 | 20.35524 | 20818 ft | 439 kts | 25° |
| 2026-05-06 16:54 | 50.82275 | 20.37745 | 20817 ft | 439 kts | 25° |
| 2026-05-06 16:54 | 50.84945 | 20.39931 | 20819 ft | 439 kts | 25° |
| 2026-05-06 16:54 | 50.87654 | 20.42148 | 20809 ft | 442 kts | 25° |
| 2026-05-06 16:54 | 50.90346 | 20.44354 | 20816 ft | 445 kts | 25° |
| 2026-05-06 16:55 | 50.93074 | 20.46592 | 20816 ft | 446 kts | 25° |
| 2026-05-06 16:55 | 50.95839 | 20.48809 | 20816 ft | 446 kts | 23° |
| 2026-05-06 16:55 | 50.98672 | 20.50788 | 20812 ft | 445 kts | 20° |
| 2026-05-06 16:55 | 51.01534 | 20.52650 | 20812 ft | 445 kts | 19° |
| 2026-05-06 16:56 | 51.04404 | 20.54504 | 20810 ft | 445 kts | 19° |
| 2026-05-06 16:56 | 51.07285 | 20.56366 | 20812 ft | 449 kts | 19° |
| 2026-05-06 16:56 | 51.10217 | 20.58258 | 20813 ft | 460 kts | 19° |
| 2026-05-06 16:56 | 51.13194 | 20.60177 | 20807 ft | 464 kts | 19° |
| 2026-05-06 16:57 | 51.16187 | 20.62109 | 20807 ft | 465 kts | 19° |
| 2026-05-06 16:57 | 51.19184 | 20.64058 | 20808 ft | 464 kts | 19° |
| 2026-05-06 16:57 | 51.22176 | 20.66019 | 20801 ft | 464 kts | 19° |
| 2026-05-06 16:57 | 51.25170 | 20.67885 | 20794 ft | 462 kts | 13° |
| 2026-05-06 16:58 | 51.28273 | 20.68674 | 20804 ft | 453 kts | 356° |
| 2026-05-06 16:58 | 51.31289 | 20.68070 | 20801 ft | 443 kts | 340° |
| 2026-05-06 16:58 | 51.34173 | 20.66627 | 20796 ft | 441 kts | 336° |
| 2026-05-06 16:58 | 51.37041 | 20.64944 | 20796 ft | 440 kts | 333° |
| 2026-05-06 16:59 | 51.39847 | 20.63023 | 20797 ft | 438 kts | 331° |
| 2026-05-06 16:59 | 51.42614 | 20.61017 | 20805 ft | 438 kts | 330° |
| 2026-05-06 16:59 | 51.45386 | 20.59015 | 20795 ft | 437 kts | 330° |
| 2026-05-06 16:59 | 51.48159 | 20.57021 | 20793 ft | 437 kts | 330° |
| 2026-05-06 17:00 | 51.50933 | 20.55038 | 20788 ft | 439 kts | 330° |
| 2026-05-06 17:00 | 51.53731 | 20.53036 | 20788 ft | 440 kts | 330° |
| 2026-05-06 17:00 | 51.56525 | 20.51038 | 20788 ft | 439 kts | 330° |
| 2026-05-06 17:00 | 51.59318 | 20.49041 | 20787 ft | 439 kts | 330° |
| 2026-05-06 17:01 | 51.62076 | 20.47067 | 20784 ft | 439 kts | 330° |
| 2026-05-06 17:01 | 51.64841 | 20.45084 | 20782 ft | 439 kts | 330° |
| 2026-05-06 17:01 | 51.67651 | 20.43069 | 20777 ft | 439 kts | 330° |
| 2026-05-06 17:01 | 51.70432 | 20.41071 | 20777 ft | 439 kts | 330° |
| 2026-05-06 17:02 | 51.73222 | 20.39059 | 20776 ft | 439 kts | 330° |
| 2026-05-06 17:02 | 51.75957 | 20.36897 | 20776 ft | 439 kts | 327° |
| 2026-05-06 17:02 | 51.78653 | 20.34592 | 20778 ft | 454 kts | 327° |
| 2026-05-06 17:02 | 51.81436 | 20.32177 | 20790 ft | 461 kts | 326° |
| 2026-05-06 17:03 | 51.84266 | 20.29719 | 20775 ft | 463 kts | 326° |
| 2026-05-06 17:03 | 51.87081 | 20.27271 | 20768 ft | 463 kts | 326° |
| 2026-05-06 17:03 | 51.89907 | 20.24813 | 20769 ft | 463 kts | 326° |
| 2026-05-06 17:03 | 51.92745 | 20.22344 | 20768 ft | 463 kts | 326° |
| 2026-05-06 17:04 | 51.95583 | 20.19873 | 20772 ft | 463 kts | 326° |
| 2026-05-06 17:04 | 51.98386 | 20.17431 | 20772 ft | 463 kts | 326° |
| 2026-05-06 17:04 | 52.01182 | 20.14990 | 20761 ft | 464 kts | 327° |
| 2026-05-06 17:04 | 52.04006 | 20.12504 | 20765 ft | 464 kts | 326° |
| 2026-05-06 17:05 | 52.06842 | 20.10004 | 20756 ft | 464 kts | 326° |
| 2026-05-06 17:05 | 52.09679 | 20.07500 | 20761 ft | 464 kts | 326° |
| 2026-05-06 17:05 | 52.12520 | 20.04991 | 20766 ft | 464 kts | 326° |
| 2026-05-06 17:05 | 52.15343 | 20.02493 | 20768 ft | 467 kts | 326° |
| 2026-05-06 17:06 | 52.18205 | 19.99953 | 20760 ft | 469 kts | 326° |
| 2026-05-06 17:06 | 52.21049 | 19.97433 | 20758 ft | 465 kts | 326° |
| 2026-05-06 17:06 | 52.23877 | 19.94933 | 20382 ft | 459 kts | 326° |
| 2026-05-06 17:06 | 52.26650 | 19.92489 | 19970 ft | 448 kts | 327° |
| 2026-05-06 17:07 | 52.29473 | 19.90456 | 19690 ft | 441 kts | 336° |
| 2026-05-06 17:07 | 52.32412 | 19.89267 | 19464 ft | 433 kts | 345° |
| 2026-05-06 17:07 | 52.35384 | 19.89089 | 19225 ft | 429 kts | 3° |
| 2026-05-06 17:07 | 52.38242 | 19.90387 | 19000 ft | 424 kts | 22° |
| 2026-05-06 17:08 | 52.40657 | 19.92986 | 18787 ft | 417 kts | 42° |
| 2026-05-06 17:08 | 52.42490 | 19.96559 | 18582 ft | 406 kts | 56° |
| 2026-05-06 17:08 | 52.44042 | 20.00377 | 18269 ft | 400 kts | 57° |
| 2026-05-06 17:08 | 52.45530 | 20.04130 | 17850 ft | 396 kts | 57° |
| 2026-05-06 17:09 | 52.47025 | 20.07915 | 17401 ft | 393 kts | 57° |
| 2026-05-06 17:09 | 52.48472 | 20.11688 | 16954 ft | 389 kts | 62° |
| 2026-05-06 17:09 | 52.49631 | 20.15674 | 16510 ft | 384 kts | 69° |
| 2026-05-06 17:09 | 52.50604 | 20.19732 | 16090 ft | 381 kts | 70° |
| 2026-05-06 17:10 | 52.51551 | 20.23773 | 15650 ft | 378 kts | 71° |
| 2026-05-06 17:10 | 52.52489 | 20.27782 | 15219 ft | 375 kts | 71° |
| 2026-05-06 17:10 | 52.53412 | 20.31744 | 14852 ft | 371 kts | 71° |
| 2026-05-06 17:10 | 52.54058 | 20.35808 | 14759 ft | 366 kts | 89° |
| 2026-05-06 17:11 | 52.53833 | 20.39841 | 14763 ft | 356 kts | 111° |
| 2026-05-06 17:11 | 52.52876 | 20.43522 | 14765 ft | 351 kts | 123° |
| 2026-05-06 17:11 | 52.51743 | 20.46864 | 14763 ft | 350 kts | 126° |
| 2026-05-06 17:11 | 52.50488 | 20.50268 | 14764 ft | 350 kts | 127° |
| 2026-05-06 17:12 | 52.49223 | 20.53656 | 14763 ft | 350 kts | 127° |
| 2026-05-06 17:12 | 52.47953 | 20.57053 | 14768 ft | 350 kts | 127° |
| 2026-05-06 17:12 | 52.46698 | 20.60407 | 14769 ft | 350 kts | 127° |
| 2026-05-06 17:12 | 52.45424 | 20.63815 | 14776 ft | 350 kts | 127° |
| 2026-05-06 17:13 | 52.44157 | 20.67199 | 14693 ft | 349 kts | 127° |
| 2026-05-06 17:13 | 52.42895 | 20.70566 | 14329 ft | 345 kts | 127° |
| 2026-05-06 17:13 | 52.41674 | 20.73839 | 14098 ft | 330 kts | 127° |
| 2026-05-06 17:13 | 52.40515 | 20.76964 | 13878 ft | 315 kts | 127° |
| 2026-05-06 17:14 | 52.39412 | 20.79956 | 13539 ft | 306 kts | 127° |
| 2026-05-06 17:14 | 52.38331 | 20.82896 | 13096 ft | 299 kts | 127° |
| 2026-05-06 17:14 | 52.37258 | 20.85813 | 12532 ft | 298 kts | 127° |
| 2026-05-06 17:14 | 52.36194 | 20.88692 | 11976 ft | 298 kts | 127° |
| 2026-05-06 17:15 | 52.35130 | 20.91564 | 11559 ft | 298 kts | 127° |
| 2026-05-06 17:15 | 52.34059 | 20.94444 | 11203 ft | 297 kts | 127° |
| 2026-05-06 17:15 | 52.33000 | 20.97284 | 10845 ft | 296 kts | 127° |
| 2026-05-06 17:15 | 52.31929 | 21.00148 | 10474 ft | 295 kts | 127° |
| 2026-05-06 17:16 | 52.30859 | 21.03001 | 10103 ft | 295 kts | 127° |
| 2026-05-06 17:16 | 52.29781 | 21.05731 | 9745 ft | 291 kts | 134° |
| 2026-05-06 17:16 | 52.28392 | 21.08049 | 9360 ft | 284 kts | 145° |
| 2026-05-06 17:16 | 52.26887 | 21.10094 | 9000 ft | 281 kts | 147° |
| 2026-05-06 17:17 | 52.25380 | 21.12085 | 8657 ft | 278 kts | 147° |
| 2026-05-06 17:17 | 52.23886 | 21.14043 | 8298 ft | 276 kts | 147° |
| 2026-05-06 17:17 | 52.22389 | 21.15992 | 7930 ft | 275 kts | 147° |
| 2026-05-06 17:17 | 52.20907 | 21.17909 | 7556 ft | 273 kts | 147° |
| 2026-05-06 17:18 | 52.19421 | 21.19808 | 7175 ft | 272 kts | 147° |
| 2026-05-06 17:18 | 52.17936 | 21.21686 | 6943 ft | 270 kts | 147° |
| 2026-05-06 17:18 | 52.16404 | 21.23458 | 7267 ft | 271 kts | 154° |
| 2026-05-06 17:18 | 52.14756 | 21.24965 | 7664 ft | 270 kts | 156° |
| 2026-05-06 17:19 | 52.13117 | 21.26403 | 7763 ft | 269 kts | 157° |
| 2026-05-06 17:19 | 52.11455 | 21.27761 | 7771 ft | 268 kts | 161° |
| 2026-05-06 17:19 | 52.09750 | 21.28940 | 7495 ft | 268 kts | 162° |
| 2026-05-06 17:19 | 52.08058 | 21.30054 | 7143 ft | 267 kts | 162° |
| 2026-05-06 17:20 | 52.06358 | 21.31157 | 6817 ft | 265 kts | 163° |
| 2026-05-06 17:20 | 52.04654 | 21.32256 | 6497 ft | 262 kts | 163° |
| 2026-05-06 17:20 | 52.02994 | 21.33307 | 6203 ft | 259 kts | 162° |
| 2026-05-06 17:20 | 52.01328 | 21.34330 | 5861 ft | 257 kts | 163° |
| 2026-05-06 17:21 | 51.99652 | 21.35356 | 5479 ft | 257 kts | 163° |
| 2026-05-06 17:21 | 51.97983 | 21.36373 | 5108 ft | 256 kts | 163° |
| 2026-05-06 17:21 | 51.96319 | 21.37378 | 4830 ft | 253 kts | 163° |
| 2026-05-06 17:21 | 51.94667 | 21.38372 | 4779 ft | 254 kts | 163° |
| 2026-05-06 17:22 | 51.93007 | 21.39306 | 4768 ft | 253 kts | 171° |
| 2026-05-06 17:22 | 51.91285 | 21.39280 | 4779 ft | 247 kts | 194° |
| 2026-05-06 17:22 | 51.89635 | 21.38511 | 4780 ft | 247 kts | 200° |
| 2026-05-06 17:22 | 51.88008 | 21.37604 | 4775 ft | 247 kts | 202° |
| 2026-05-06 17:23 | 51.86558 | 21.36178 | 4818 ft | 244 kts | 224° |
| 2026-05-06 17:23 | 51.85412 | 21.34151 | 4960 ft | 245 kts | 230° |
| 2026-05-06 17:23 | 51.84329 | 21.32018 | 4974 ft | 245 kts | 231° |
| 2026-05-06 17:23 | 51.83411 | 21.29747 | 4967 ft | 246 kts | 252° |
| 2026-05-06 17:24 | 51.83426 | 21.27019 | 4971 ft | 250 kts | 288° |
| 2026-05-06 17:24 | 51.84459 | 21.24743 | 4975 ft | 258 kts | 317° |
| 2026-05-06 17:24 | 51.85986 | 21.23168 | 4975 ft | 264 kts | 329° |
| 2026-05-06 17:24 | 51.87615 | 21.21838 | 4969 ft | 261 kts | 330° |
| 2026-05-06 17:25 | 51.89191 | 21.20577 | 4946 ft | 245 kts | 329° |
| 2026-05-06 17:25 | 51.90653 | 21.19323 | 4919 ft | 230 kts | 327° |
| 2026-05-06 17:25 | 51.92012 | 21.18122 | 4889 ft | 216 kts | 327° |
| 2026-05-06 17:25 | 51.93281 | 21.17016 | 4845 ft | 202 kts | 327° |
| 2026-05-06 17:26 | 51.94488 | 21.15964 | 4995 ft | 201 kts | 327° |
| 2026-05-06 17:26 | 51.95806 | 21.14815 | 5145 ft | 231 kts | 328° |
| 2026-05-06 17:26 | 51.96769 | 21.13982 | 4994 ft | 240 kts | 328° |
| 2026-05-06 17:26 | 51.98252 | 21.12700 | 4521 ft | 248 kts | 328° |
| 2026-05-06 17:27 | 51.99811 | 21.11343 | 3885 ft | 259 kts | 328° |
| 2026-05-06 17:27 | 52.01419 | 21.09946 | 3412 ft | 263 kts | 328° |
| 2026-05-06 17:27 | 52.03010 | 21.08562 | 3066 ft | 261 kts | 329° |
| 2026-05-06 17:27 | 52.04595 | 21.07182 | 2734 ft | 254 kts | 329° |
| 2026-05-06 17:28 | 52.06130 | 21.05845 | 2412 ft | 246 kts | 329° |
| 2026-05-06 17:28 | 52.07601 | 21.04562 | 2137 ft | 233 kts | 328° |
| 2026-05-06 17:28 | 52.08994 | 21.03346 | 1822 ft | 225 kts | 328° |
| 2026-05-06 17:28 | 52.10353 | 21.02158 | 1524 ft | 215 kts | 328° |
| 2026-05-06 17:29 | 52.11617 | 21.01055 | 1258 ft | 198 kts | 328° |
| 2026-05-06 17:29 | 52.12774 | 21.00042 | 981 ft | 182 kts | 328° |
| 2026-05-06 17:29 | 52.13826 | 20.99124 | 752 ft | 161 kts | 328° |
| 2026-05-06 17:29 | 52.14764 | 20.98299 | 567 ft | 150 kts | 327° |
| 2026-05-06 17:30 | 52.15703 | 20.97471 | 695 ft | 165 kts | 328° |
| 2026-05-06 17:30 | 52.16757 | 20.96494 | 1144 ft | 189 kts | 327° |
| 2026-05-06 17:30 | 52.17952 | 20.95314 | 1622 ft | 210 kts | 324° |
| 2026-05-06 17:30 | 52.19256 | 20.93973 | 2157 ft | 236 kts | 323° |
| 2026-05-06 17:31 | 52.20701 | 20.92414 | 2783 ft | 258 kts | 322° |
| 2026-05-06 17:31 | 52.22264 | 20.90893 | 3480 ft | 275 kts | 328° |
| 2026-05-06 17:31 | 52.24017 | 20.89388 | 4127 ft | 293 kts | 327° |
| 2026-05-06 17:31 | 52.25781 | 20.87517 | 4671 ft | 310 kts | 316° |
| 2026-05-06 17:32 | 52.27250 | 20.84845 | 4961 ft | 328 kts | 302° |
| 2026-05-06 17:32 | 52.28334 | 20.81520 | 4506 ft | 324 kts | 286° |
| 2026-05-06 17:32 | 52.28665 | 20.78062 | 4087 ft | 296 kts | 268° |
| 2026-05-06 17:32 | 52.28334 | 20.74937 | 3960 ft | 264 kts | 249° |
| 2026-05-06 17:33 | 52.27695 | 20.72323 | 4002 ft | 234 kts | 247° |
| 2026-05-06 17:33 | 52.27096 | 20.70022 | 3960 ft | 211 kts | 245° |
| 2026-05-06 17:33 | 52.26523 | 20.67930 | 3861 ft | 194 kts | 244° |
| 2026-05-06 17:33 | 52.25959 | 20.66023 | 3698 ft | 180 kts | 239° |
| 2026-05-06 17:34 | 52.25051 | 20.64751 | 3670 ft | 182 kts | 199° |
| 2026-05-06 17:34 | 52.23689 | 20.64805 | 3959 ft | 216 kts | 165° |
| 2026-05-06 17:34 | 52.22310 | 20.66014 | 4023 ft | 232 kts | 150° |
| 2026-05-06 17:34 | 52.21007 | 20.67575 | 3965 ft | 232 kts | 147° |
| 2026-05-06 17:35 | 52.19724 | 20.69183 | 3993 ft | 232 kts | 147° |
| 2026-05-06 17:35 | 52.18447 | 20.70791 | 3993 ft | 232 kts | 147° |
| 2026-05-06 17:35 | 52.17170 | 20.72400 | 3990 ft | 232 kts | 147° |
| 2026-05-06 17:36 | 52.14644 | 20.75581 | 3990 ft | 232 kts | 147° |
| 2026-05-06 17:36 | 52.13359 | 20.77182 | 3992 ft | 232 kts | 147° |
| 2026-05-06 17:36 | 52.12080 | 20.78770 | 4019 ft | 230 kts | 147° |
| 2026-05-06 17:36 | 52.10831 | 20.80328 | 4004 ft | 230 kts | 147° |
| 2026-05-06 17:37 | 52.09557 | 20.81915 | 3993 ft | 231 kts | 147° |
| 2026-05-06 17:37 | 52.08218 | 20.83325 | 3989 ft | 227 kts | 163° |
| 2026-05-06 17:37 | 52.06701 | 20.83920 | 3997 ft | 223 kts | 175° |
| 2026-05-06 17:37 | 52.05161 | 20.84258 | 3996 ft | 222 kts | 176° |
| 2026-05-06 17:38 | 52.03625 | 20.84566 | 3993 ft | 222 kts | 176° |
| 2026-05-06 17:38 | 52.02095 | 20.84896 | 3992 ft | 223 kts | 172° |
| 2026-05-06 17:38 | 52.00705 | 20.86050 | 3996 ft | 232 kts | 141° |
| 2026-05-06 17:38 | 51.99676 | 20.88104 | 3999 ft | 236 kts | 129° |
| 2026-05-06 17:39 | 51.98771 | 20.90336 | 4001 ft | 237 kts | 127° |
| 2026-05-06 17:39 | 51.97881 | 20.92587 | 3999 ft | 236 kts | 127° |
| 2026-05-06 17:39 | 51.97010 | 20.94798 | 3999 ft | 237 kts | 126° |
| 2026-05-06 17:39 | 51.96446 | 20.97318 | 3986 ft | 243 kts | 97° |
| 2026-05-06 17:40 | 51.96614 | 21.00033 | 4000 ft | 244 kts | 79° |
| 2026-05-06 17:40 | 51.97015 | 21.02697 | 4002 ft | 244 kts | 77° |
| 2026-05-06 17:40 | 51.97449 | 21.05354 | 3997 ft | 243 kts | 77° |
| 2026-05-06 17:40 | 51.97887 | 21.08007 | 4000 ft | 244 kts | 77° |
| 2026-05-06 17:41 | 51.98448 | 21.10578 | 3986 ft | 237 kts | 60° |
| 2026-05-06 17:41 | 51.99556 | 21.12308 | 3967 ft | 213 kts | 24° |
| 2026-05-06 17:41 | 52.00935 | 21.12636 | 3994 ft | 194 kts | 344° |
| 2026-05-06 17:41 | 52.02125 | 21.11944 | 3981 ft | 174 kts | 325° |
| 2026-05-06 17:42 | 52.03208 | 21.10993 | 4012 ft | 182 kts | 322° |
| 2026-05-06 17:42 | 52.04297 | 21.10008 | 3719 ft | 181 kts | 327° |
| 2026-05-06 17:42 | 52.05396 | 21.08950 | 3218 ft | 187 kts | 317° |
| 2026-05-06 17:42 | 52.06342 | 21.07489 | 2797 ft | 194 kts | 305° |
| 2026-05-06 17:43 | 52.07287 | 21.05714 | 2477 ft | 229 kts | 309° |
| 2026-05-06 17:43 | 52.08485 | 21.03978 | 2078 ft | 229 kts | 319° |
| 2026-05-06 17:43 | 52.09799 | 21.02632 | 1736 ft | 224 kts | 326° |
| 2026-05-06 17:43 | 52.11164 | 21.01426 | 1747 ft | 220 kts | 326° |
| 2026-05-06 17:44 | 52.12525 | 21.00201 | 1270 ft | 231 kts | 328° |
| 2026-05-06 17:44 | 52.13922 | 20.98989 | 736 ft | 220 kts | 332° |
| 2026-05-06 17:44 | 52.15234 | 20.97885 | 464 ft | 202 kts | 331° |
| 2026-05-06 17:44 | 52.16387 | 20.96885 | 369 ft | 179 kts | 330° |
| 2026-05-06 17:45 | 52.17307 | 20.96070 | 360 ft | 109 kts | 332° |
| 2026-05-06 17:45 | 52.17719 | 20.95709 | 359 ft | 27 kts | 332° |
| 2026-05-06 17:45 | 52.17782 | 20.95654 | 359 ft | 16 kts | 332° |
| 2026-05-06 17:45 | 52.17866 | 20.95652 | 354 ft | 8 kts | 50° |
| 2026-05-06 17:46 | 52.17882 | 20.95698 | 361 ft | 0 kts | 61° |
| 2026-05-06 17:46 | 52.17887 | 20.95712 | 362 ft | 6 kts | 62° |
| 2026-05-06 17:47 | 52.17865 | 20.95860 | 359 ft | 19 kts | 125° |
| 2026-05-06 17:47 | 52.17797 | 20.96039 | 358 ft | 19 kts | 106° |
| 2026-05-06 17:47 | 52.17832 | 20.96231 | 363 ft | 19 kts | 62° |
| 2026-05-06 17:47 | 52.17886 | 20.96391 | 362 ft | 0 kts | 56° |
| 2026-05-06 17:48 | 52.17891 | 20.96443 | 355 ft | 11 kts | 96° |
| 2026-05-06 17:48 | 52.17849 | 20.96636 | 361 ft | 26 kts | 111° |
| 2026-05-06 17:48 | 52.17708 | 20.96866 | 361 ft | 28 kts | 148° |
| 2026-05-06 17:48 | 52.17671 | 20.96898 | 357 ft | 0 kts | 156° |
| 2026-05-06 17:49 | 52.17673 | 20.96896 | 357 ft | 0 kts | 156° |
| 2026-05-06 17:49 | 52.17676 | 20.96894 | 358 ft | 1 kts | 156° |
| 2026-05-06 17:49 | 52.17678 | 20.96893 | 358 ft | 3 kts | 155° |
| 2026-05-06 17:49 | 52.17615 | 20.96926 | 359 ft | 10 kts | 192° |
| 2026-05-06 17:50 | 52.17583 | 20.96835 | 360 ft | 5 kts | 272° |
| 2026-05-06 17:50 | 52.17585 | 20.96802 | 358 ft | 6 kts | 258° |
| 2026-05-06 17:50 | 52.17536 | 20.96619 | 359 ft | 16 kts | 269° |
| 2026-05-06 17:50 | 52.17552 | 20.96557 | 359 ft | 0 kts | 319° |
| 2026-05-06 17:51 | 52.17599 | 20.96504 | 359 ft | 7 kts | 328° |
| 2026-05-06 17:51 | 52.17624 | 20.96478 | 360 ft | 4 kts | 325° |
| 2026-05-06 17:51 | 52.17637 | 20.96464 | 358 ft | 8 kts | 328° |
| 2026-05-06 17:51 | 52.17644 | 20.96419 | 356 ft | 4 kts | 238° |
| 2026-05-06 17:52 | 52.17633 | 20.96388 | 363 ft | 0 kts | 242° |